sensor_id;sensor_type;location;lat;lon;timestamp;P1;durP1;ratioP1;P2;durP2;ratioP2
42104;SDS011;61464;51.472;5.712;2022-08-01T00:01:56;13.60;;;10.27;;
42104;SDS011;61464;51.472;5.712;2022-08-01T00:04:22;17.00;;;9.55;;
42104;SDS011;61464;51.472;5.712;2022-08-01T00:06:48;14.63;;;9.60;;
42104;SDS011;61464;51.472;5.712;2022-08-01T00:09:13;15.20;;;9.88;;
42104;SDS011;61464;51.472;5.712;2022-08-01T00:11:39;18.02;;;10.50;;
42104;SDS011;61464;51.472;5.712;2022-08-01T00:14:06;15.77;;;10.45;;
42104;SDS011;61464;51.472;5.712;2022-08-01T00:16:34;13.93;;;10.57;;
42104;SDS011;61464;51.472;5.712;2022-08-01T00:19:00;17.65;;;11.07;;
42104;SDS011;61464;51.472;5.712;2022-08-01T00:21:26;20.83;;;11.20;;
42104;SDS011;61464;51.472;5.712;2022-08-01T00:23:52;17.33;;;10.93;;
42104;SDS011;61464;51.472;5.712;2022-08-01T00:26:18;17.58;;;11.43;;
42104;SDS011;61464;51.472;5.712;2022-08-01T00:28:44;18.38;;;11.15;;
42104;SDS011;61464;51.472;5.712;2022-08-01T00:31:10;17.63;;;12.02;;
42104;SDS011;61464;51.472;5.712;2022-08-01T00:33:36;23.58;;;13.70;;
42104;SDS011;61464;51.472;5.712;2022-08-01T00:36:02;17.73;;;11.77;;
42104;SDS011;61464;51.472;5.712;2022-08-01T00:38:28;17.80;;;11.90;;
42104;SDS011;61464;51.472;5.712;2022-08-01T00:40:54;57.60;;;19.35;;
42104;SDS011;61464;51.472;5.712;2022-08-01T00:43:20;20.45;;;13.48;;
42104;SDS011;61464;51.472;5.712;2022-08-01T00:45:45;22.33;;;13.10;;
42104;SDS011;61464;51.472;5.712;2022-08-01T00:48:11;25.05;;;14.23;;
42104;SDS011;61464;51.472;5.712;2022-08-01T00:50:37;24.23;;;13.93;;
42104;SDS011;61464;51.472;5.712;2022-08-01T00:53:05;27.40;;;14.93;;
42104;SDS011;61464;51.472;5.712;2022-08-01T00:55:32;22.50;;;14.27;;
42104;SDS011;61464;51.472;5.712;2022-08-01T00:57:58;34.28;;;16.30;;
42104;SDS011;61464;51.472;5.712;2022-08-01T01:00:25;30.13;;;14.95;;
42104;SDS011;61464;51.472;5.712;2022-08-01T01:02:51;144.70;;;31.38;;
42104;SDS011;61464;51.472;5.712;2022-08-01T01:05:17;30.67;;;16.15;;
42104;SDS011;61464;51.472;5.712;2022-08-01T01:10:16;365.42;;;67.72;;
42104;SDS011;61464;51.472;5.712;2022-08-01T01:12:51;92.35;;;23.13;;
42104;SDS011;61464;51.472;5.712;2022-08-01T01:15:29;29.63;;;16.45;;
42104;SDS011;61464;51.472;5.712;2022-08-01T01:18:14;35.35;;;16.60;;
42104;SDS011;61464;51.472;5.712;2022-08-01T01:24:17;167.98;;;27.65;;
42104;SDS011;61464;51.472;5.712;2022-08-01T01:29:50;33.55;;;18.27;;
42104;SDS011;61464;51.472;5.712;2022-08-01T01:32:31;33.67;;;17.73;;
42104;SDS011;61464;51.472;5.712;2022-08-01T01:35:06;37.85;;;19.23;;
42104;SDS011;61464;51.472;5.712;2022-08-01T01:37:39;38.70;;;19.35;;
42104;SDS011;61464;51.472;5.712;2022-08-01T01:40:07;38.08;;;19.85;;
42104;SDS011;61464;51.472;5.712;2022-08-01T01:42:36;38.75;;;19.27;;
42104;SDS011;61464;51.472;5.712;2022-08-01T01:45:03;40.25;;;21.63;;
42104;SDS011;61464;51.472;5.712;2022-08-01T01:47:31;37.38;;;20.08;;
42104;SDS011;61464;51.472;5.712;2022-08-01T01:49:58;37.17;;;20.55;;
42104;SDS011;61464;51.472;5.712;2022-08-01T01:52:27;41.50;;;21.17;;
42104;SDS011;61464;51.472;5.712;2022-08-01T01:54:54;35.55;;;19.23;;
42104;SDS011;61464;51.472;5.712;2022-08-01T01:57:22;31.48;;;19.40;;
42104;SDS011;61464;51.472;5.712;2022-08-01T01:59:50;32.25;;;18.08;;
42104;SDS011;61464;51.472;5.712;2022-08-01T02:02:18;26.67;;;16.88;;
42104;SDS011;61464;51.472;5.712;2022-08-01T02:04:46;28.77;;;17.05;;
42104;SDS011;61464;51.472;5.712;2022-08-01T02:07:14;35.92;;;17.98;;
42104;SDS011;61464;51.472;5.712;2022-08-01T02:09:46;32.60;;;16.73;;
42104;SDS011;61464;51.472;5.712;2022-08-01T02:12:13;29.60;;;17.52;;
42104;SDS011;61464;51.472;5.712;2022-08-01T02:14:43;26.23;;;17.08;;
42104;SDS011;61464;51.472;5.712;2022-08-01T02:17:12;29.38;;;19.38;;
42104;SDS011;61464;51.472;5.712;2022-08-01T02:19:43;30.67;;;17.70;;
42104;SDS011;61464;51.472;5.712;2022-08-01T02:24:52;28.35;;;18.10;;
42104;SDS011;61464;51.472;5.712;2022-08-01T02:27:45;30.60;;;16.08;;
42104;SDS011;61464;51.472;5.712;2022-08-01T02:30:32;31.15;;;17.20;;
42104;SDS011;61464;51.472;5.712;2022-08-01T02:33:35;30.45;;;16.63;;
42104;SDS011;61464;51.472;5.712;2022-08-01T02:35:58;30.77;;;15.75;;
42104;SDS011;61464;51.472;5.712;2022-08-01T02:38:28;29.05;;;16.08;;
42104;SDS011;61464;51.472;5.712;2022-08-01T02:41:02;24.40;;;15.35;;
42104;SDS011;61464;51.472;5.712;2022-08-01T02:43:34;27.27;;;15.55;;
42104;SDS011;61464;51.472;5.712;2022-08-01T02:46:14;24.92;;;15.07;;
42104;SDS011;61464;51.472;5.712;2022-08-01T02:48:47;26.98;;;14.75;;
42104;SDS011;61464;51.472;5.712;2022-08-01T02:51:15;25.10;;;14.43;;
42104;SDS011;61464;51.472;5.712;2022-08-01T02:53:42;24.05;;;14.27;;
42104;SDS011;61464;51.472;5.712;2022-08-01T02:56:11;23.45;;;13.32;;
42104;SDS011;61464;51.472;5.712;2022-08-01T02:58:38;24.45;;;12.57;;
42104;SDS011;61464;51.472;5.712;2022-08-01T03:01:05;21.40;;;12.68;;
42104;SDS011;61464;51.472;5.712;2022-08-01T03:03:34;23.05;;;13.43;;
42104;SDS011;61464;51.472;5.712;2022-08-01T03:06:02;20.25;;;12.82;;
42104;SDS011;61464;51.472;5.712;2022-08-01T03:08:29;23.55;;;12.38;;
42104;SDS011;61464;51.472;5.712;2022-08-01T03:10:56;21.45;;;12.27;;
42104;SDS011;61464;51.472;5.712;2022-08-01T03:13:25;23.33;;;13.68;;
42104;SDS011;61464;51.472;5.712;2022-08-01T03:15:57;21.75;;;12.27;;
42104;SDS011;61464;51.472;5.712;2022-08-01T03:18:25;21.40;;;12.50;;
42104;SDS011;61464;51.472;5.712;2022-08-01T03:20:53;21.73;;;12.52;;
42104;SDS011;61464;51.472;5.712;2022-08-01T03:23:20;23.58;;;12.82;;
42104;SDS011;61464;51.472;5.712;2022-08-01T03:25:48;590.72;;;46.33;;
42104;SDS011;61464;51.472;5.712;2022-08-01T03:28:16;21.23;;;12.23;;
42104;SDS011;61464;51.472;5.712;2022-08-01T03:30:43;22.25;;;12.40;;
42104;SDS011;61464;51.472;5.712;2022-08-01T03:33:10;21.25;;;11.85;;
42104;SDS011;61464;51.472;5.712;2022-08-01T03:35:37;23.30;;;11.50;;
42104;SDS011;61464;51.472;5.712;2022-08-01T03:38:12;19.90;;;11.73;;
42104;SDS011;61464;51.472;5.712;2022-08-01T03:40:49;15.77;;;9.02;;
42104;SDS011;61464;51.472;5.712;2022-08-01T03:43:41;22.65;;;10.95;;
42104;SDS011;61464;51.472;5.712;2022-08-01T03:46:22;105.50;;;14.13;;
42104;SDS011;61464;51.472;5.712;2022-08-01T03:49:06;19.58;;;10.70;;
42104;SDS011;61464;51.472;5.712;2022-08-01T03:51:39;20.38;;;10.35;;
42104;SDS011;61464;51.472;5.712;2022-08-01T03:54:06;20.40;;;9.65;;
42104;SDS011;61464;51.472;5.712;2022-08-01T03:56:35;16.23;;;8.93;;
42104;SDS011;61464;51.472;5.712;2022-08-01T03:59:05;16.27;;;9.18;;
42104;SDS011;61464;51.472;5.712;2022-08-01T04:01:31;19.13;;;10.25;;
42104;SDS011;61464;51.472;5.712;2022-08-01T04:03:59;15.13;;;9.68;;
42104;SDS011;61464;51.472;5.712;2022-08-01T04:06:25;18.48;;;9.65;;
42104;SDS011;61464;51.472;5.712;2022-08-01T04:08:51;23.17;;;11.23;;
42104;SDS011;61464;51.472;5.712;2022-08-01T04:11:20;19.75;;;9.45;;
42104;SDS011;61464;51.472;5.712;2022-08-01T04:13:52;18.85;;;10.20;;
42104;SDS011;61464;51.472;5.712;2022-08-01T04:16:19;19.52;;;10.48;;
42104;SDS011;61464;51.472;5.712;2022-08-01T04:18:46;21.27;;;11.07;;
42104;SDS011;61464;51.472;5.712;2022-08-01T04:21:12;18.05;;;10.52;;
42104;SDS011;61464;51.472;5.712;2022-08-01T04:23:40;18.60;;;10.68;;
42104;SDS011;61464;51.472;5.712;2022-08-01T04:26:08;20.30;;;10.82;;
42104;SDS011;61464;51.472;5.712;2022-08-01T04:28:36;19.00;;;10.40;;
42104;SDS011;61464;51.472;5.712;2022-08-01T04:31:08;21.08;;;11.07;;
42104;SDS011;61464;51.472;5.712;2022-08-01T04:33:36;21.38;;;11.30;;
42104;SDS011;61464;51.472;5.712;2022-08-01T04:36:07;21.45;;;10.82;;
42104;SDS011;61464;51.472;5.712;2022-08-01T04:38:37;17.50;;;10.45;;
42104;SDS011;61464;51.472;5.712;2022-08-01T04:41:05;21.40;;;10.93;;
42104;SDS011;61464;51.472;5.712;2022-08-01T04:43:34;20.90;;;11.25;;
42104;SDS011;61464;51.472;5.712;2022-08-01T04:46:03;19.73;;;10.68;;
42104;SDS011;61464;51.472;5.712;2022-08-01T04:48:36;21.00;;;10.57;;
42104;SDS011;61464;51.472;5.712;2022-08-01T04:51:04;17.35;;;10.20;;
42104;SDS011;61464;51.472;5.712;2022-08-01T04:53:40;18.92;;;10.68;;
42104;SDS011;61464;51.472;5.712;2022-08-01T04:56:06;17.77;;;10.60;;
42104;SDS011;61464;51.472;5.712;2022-08-01T04:58:32;17.42;;;10.23;;
42104;SDS011;61464;51.472;5.712;2022-08-01T05:00:58;21.85;;;10.95;;
42104;SDS011;61464;51.472;5.712;2022-08-01T05:03:24;18.33;;;9.77;;
42104;SDS011;61464;51.472;5.712;2022-08-01T05:05:50;16.60;;;9.77;;
42104;SDS011;61464;51.472;5.712;2022-08-01T05:08:15;17.52;;;9.40;;
42104;SDS011;61464;51.472;5.712;2022-08-01T05:10:41;15.13;;;9.18;;
42104;SDS011;61464;51.472;5.712;2022-08-01T05:13:07;17.40;;;8.93;;
42104;SDS011;61464;51.472;5.712;2022-08-01T05:15:34;13.00;;;7.43;;
42104;SDS011;61464;51.472;5.712;2022-08-01T05:18:01;13.35;;;7.43;;
42104;SDS011;61464;51.472;5.712;2022-08-01T05:20:27;13.90;;;7.50;;
42104;SDS011;61464;51.472;5.712;2022-08-01T05:22:53;13.38;;;7.07;;
42104;SDS011;61464;51.472;5.712;2022-08-01T05:25:22;13.07;;;6.82;;
42104;SDS011;61464;51.472;5.712;2022-08-01T05:27:48;13.73;;;6.88;;
42104;SDS011;61464;51.472;5.712;2022-08-01T05:30:15;16.45;;;6.97;;
42104;SDS011;61464;51.472;5.712;2022-08-01T05:32:41;14.10;;;7.32;;
42104;SDS011;61464;51.472;5.712;2022-08-01T05:35:07;12.10;;;7.20;;
42104;SDS011;61464;51.472;5.712;2022-08-01T05:37:34;13.07;;;7.30;;
42104;SDS011;61464;51.472;5.712;2022-08-01T05:40:00;11.10;;;6.18;;
42104;SDS011;61464;51.472;5.712;2022-08-01T05:42:26;12.35;;;6.78;;
42104;SDS011;61464;51.472;5.712;2022-08-01T05:44:52;12.93;;;6.63;;
42104;SDS011;61464;51.472;5.712;2022-08-01T05:47:18;15.30;;;7.55;;
42104;SDS011;61464;51.472;5.712;2022-08-01T05:49:44;15.35;;;6.63;;
42104;SDS011;61464;51.472;5.712;2022-08-01T05:52:11;13.10;;;7.90;;
42104;SDS011;61464;51.472;5.712;2022-08-01T05:54:37;11.07;;;6.82;;
42104;SDS011;61464;51.472;5.712;2022-08-01T05:57:03;12.98;;;7.32;;
42104;SDS011;61464;51.472;5.712;2022-08-01T05:59:29;10.43;;;6.95;;
42104;SDS011;61464;51.472;5.712;2022-08-01T06:01:55;11.80;;;7.15;;
42104;SDS011;61464;51.472;5.712;2022-08-01T06:04:22;14.05;;;7.05;;
42104;SDS011;61464;51.472;5.712;2022-08-01T06:06:48;13.95;;;7.32;;
42104;SDS011;61464;51.472;5.712;2022-08-01T06:09:14;11.52;;;7.90;;
42104;SDS011;61464;51.472;5.712;2022-08-01T06:11:40;10.70;;;7.10;;
42104;SDS011;61464;51.472;5.712;2022-08-01T06:14:06;12.30;;;7.45;;
42104;SDS011;61464;51.472;5.712;2022-08-01T06:16:32;18.05;;;8.52;;
42104;SDS011;61464;51.472;5.712;2022-08-01T06:18:58;13.55;;;8.05;;
42104;SDS011;61464;51.472;5.712;2022-08-01T06:21:24;12.55;;;8.20;;
42104;SDS011;61464;51.472;5.712;2022-08-01T06:23:50;12.88;;;7.30;;
42104;SDS011;61464;51.472;5.712;2022-08-01T06:26:19;11.63;;;6.78;;
42104;SDS011;61464;51.472;5.712;2022-08-01T06:28:45;11.55;;;7.32;;
42104;SDS011;61464;51.472;5.712;2022-08-01T06:31:11;10.05;;;6.43;;
42104;SDS011;61464;51.472;5.712;2022-08-01T06:33:38;11.38;;;7.25;;
42104;SDS011;61464;51.472;5.712;2022-08-01T06:36:04;14.25;;;7.00;;
42104;SDS011;61464;51.472;5.712;2022-08-01T06:38:30;9.45;;;6.65;;
42104;SDS011;61464;51.472;5.712;2022-08-01T06:40:56;13.88;;;7.10;;
42104;SDS011;61464;51.472;5.712;2022-08-01T06:43:22;9.73;;;7.05;;
42104;SDS011;61464;51.472;5.712;2022-08-01T06:45:48;10.60;;;6.03;;
42104;SDS011;61464;51.472;5.712;2022-08-01T06:48:14;9.48;;;5.82;;
42104;SDS011;61464;51.472;5.712;2022-08-01T06:50:40;8.57;;;4.40;;
42104;SDS011;61464;51.472;5.712;2022-08-01T06:53:06;10.23;;;5.88;;
42104;SDS011;61464;51.472;5.712;2022-08-01T06:55:31;6.47;;;3.38;;
42104;SDS011;61464;51.472;5.712;2022-08-01T06:57:57;6.78;;;4.05;;
42104;SDS011;61464;51.472;5.712;2022-08-01T07:00:24;8.23;;;3.70;;
42104;SDS011;61464;51.472;5.712;2022-08-01T07:02:51;7.20;;;3.80;;
42104;SDS011;61464;51.472;5.712;2022-08-01T07:05:19;7.20;;;3.90;;
42104;SDS011;61464;51.472;5.712;2022-08-01T07:07:45;8.32;;;6.00;;
42104;SDS011;61464;51.472;5.712;2022-08-01T07:10:11;9.00;;;6.00;;
42104;SDS011;61464;51.472;5.712;2022-08-01T07:12:39;13.20;;;5.88;;
42104;SDS011;61464;51.472;5.712;2022-08-01T07:15:06;9.90;;;6.53;;
42104;SDS011;61464;51.472;5.712;2022-08-01T07:17:40;10.02;;;6.57;;
42104;SDS011;61464;51.472;5.712;2022-08-01T07:20:08;10.63;;;6.20;;
42104;SDS011;61464;51.472;5.712;2022-08-01T07:22:37;8.85;;;6.68;;
42104;SDS011;61464;51.472;5.712;2022-08-01T07:25:04;8.02;;;5.38;;
42104;SDS011;61464;51.472;5.712;2022-08-01T07:27:31;6.63;;;5.40;;
42104;SDS011;61464;51.472;5.712;2022-08-01T07:29:57;8.77;;;5.30;;
42104;SDS011;61464;51.472;5.712;2022-08-01T07:32:23;9.20;;;5.60;;
42104;SDS011;61464;51.472;5.712;2022-08-01T07:34:50;8.13;;;5.53;;
42104;SDS011;61464;51.472;5.712;2022-08-01T07:37:15;8.30;;;5.40;;
42104;SDS011;61464;51.472;5.712;2022-08-01T07:39:41;7.25;;;5.30;;
42104;SDS011;61464;51.472;5.712;2022-08-01T07:42:07;6.38;;;5.55;;
42104;SDS011;61464;51.472;5.712;2022-08-01T07:44:33;7.18;;;5.00;;
42104;SDS011;61464;51.472;5.712;2022-08-01T07:47:00;7.75;;;5.15;;
42104;SDS011;61464;51.472;5.712;2022-08-01T07:49:26;7.78;;;5.28;;
42104;SDS011;61464;51.472;5.712;2022-08-01T07:51:52;7.50;;;5.30;;
42104;SDS011;61464;51.472;5.712;2022-08-01T07:54:19;3.95;;;2.92;;
42104;SDS011;61464;51.472;5.712;2022-08-01T07:56:44;5.25;;;3.08;;
42104;SDS011;61464;51.472;5.712;2022-08-01T07:59:10;3.10;;;2.00;;
42104;SDS011;61464;51.472;5.712;2022-08-01T08:01:36;2.53;;;1.00;;
42104;SDS011;61464;51.472;5.712;2022-08-01T08:04:02;4.07;;;1.60;;
42104;SDS011;61464;51.472;5.712;2022-08-01T08:06:28;1.67;;;1.10;;
42104;SDS011;61464;51.472;5.712;2022-08-01T08:08:53;1.73;;;0.93;;
42104;SDS011;61464;51.472;5.712;2022-08-01T08:11:19;1.35;;;0.77;;
42104;SDS011;61464;51.472;5.712;2022-08-01T08:13:45;1.52;;;0.80;;
42104;SDS011;61464;51.472;5.712;2022-08-01T08:16:11;2.03;;;1.15;;
42104;SDS011;61464;51.472;5.712;2022-08-01T08:18:37;1.48;;;0.82;;
42104;SDS011;61464;51.472;5.712;2022-08-01T08:21:03;1.50;;;0.90;;
42104;SDS011;61464;51.472;5.712;2022-08-01T08:23:29;1.25;;;0.70;;
42104;SDS011;61464;51.472;5.712;2022-08-01T08:26:13;2.23;;;0.70;;
42104;SDS011;61464;51.472;5.712;2022-08-01T08:28:39;0.60;;;0.50;;
42104;SDS011;61464;51.472;5.712;2022-08-01T08:31:05;0.82;;;0.60;;
42104;SDS011;61464;51.472;5.712;2022-08-01T08:33:30;1.30;;;0.77;;
42104;SDS011;61464;51.472;5.712;2022-08-01T08:35:56;1.23;;;0.98;;
42104;SDS011;61464;51.472;5.712;2022-08-01T08:38:22;1.20;;;0.77;;
42104;SDS011;61464;51.472;5.712;2022-08-01T08:40:50;1.70;;;1.42;;
42104;SDS011;61464;51.472;5.712;2022-08-01T08:43:18;2.90;;;1.80;;
42104;SDS011;61464;51.472;5.712;2022-08-01T08:45:44;2.33;;;1.70;;
42104;SDS011;61464;51.472;5.712;2022-08-01T08:48:11;2.55;;;1.95;;
42104;SDS011;61464;51.472;5.712;2022-08-01T08:50:38;1.63;;;1.25;;
42104;SDS011;61464;51.472;5.712;2022-08-01T08:53:08;1.58;;;1.13;;
42104;SDS011;61464;51.472;5.712;2022-08-01T08:55:35;1.30;;;0.98;;
42104;SDS011;61464;51.472;5.712;2022-08-01T08:58:02;1.67;;;1.20;;
42104;SDS011;61464;51.472;5.712;2022-08-01T09:00:30;2.60;;;1.40;;
42104;SDS011;61464;51.472;5.712;2022-08-01T09:02:59;1.75;;;1.02;;
42104;SDS011;61464;51.472;5.712;2022-08-01T09:05:24;1.45;;;0.88;;
42104;SDS011;61464;51.472;5.712;2022-08-01T09:07:51;0.57;;;0.57;;
42104;SDS011;61464;51.472;5.712;2022-08-01T09:10:17;1.80;;;0.57;;
42104;SDS011;61464;51.472;5.712;2022-08-01T09:15:42;3.58;;;1.42;;
42104;SDS011;61464;51.472;5.712;2022-08-01T09:18:27;2.23;;;1.10;;
42104;SDS011;61464;51.472;5.712;2022-08-01T09:21:09;2.13;;;1.25;;
42104;SDS011;61464;51.472;5.712;2022-08-01T09:23:48;2.30;;;1.20;;
42104;SDS011;61464;51.472;5.712;2022-08-01T09:26:20;1.05;;;0.75;;
42104;SDS011;61464;51.472;5.712;2022-08-01T09:28:56;0.80;;;0.70;;
42104;SDS011;61464;51.472;5.712;2022-08-01T09:31:23;1.65;;;0.60;;
42104;SDS011;61464;51.472;5.712;2022-08-01T09:33:58;0.73;;;0.43;;
42104;SDS011;61464;51.472;5.712;2022-08-01T09:39:19;1.88;;;0.50;;
42104;SDS011;61464;51.472;5.712;2022-08-01T09:41:47;2.03;;;0.52;;
42104;SDS011;61464;51.472;5.712;2022-08-01T09:44:14;1.65;;;0.40;;
42104;SDS011;61464;51.472;5.712;2022-08-01T09:47:00;2.30;;;0.32;;
42104;SDS011;61464;51.472;5.712;2022-08-01T09:49:34;1.30;;;0.40;;
42104;SDS011;61464;51.472;5.712;2022-08-01T09:52:16;0.65;;;0.40;;
42104;SDS011;61464;51.472;5.712;2022-08-01T09:55:20;0.93;;;0.50;;
42104;SDS011;61464;51.472;5.712;2022-08-01T09:57:55;1.20;;;0.90;;
42104;SDS011;61464;51.472;5.712;2022-08-01T10:00:23;3.13;;;1.00;;
42104;SDS011;61464;51.472;5.712;2022-08-01T10:02:49;1.80;;;0.82;;
42104;SDS011;61464;51.472;5.712;2022-08-01T10:05:14;0.40;;;0.40;;
42104;SDS011;61464;51.472;5.712;2022-08-01T10:07:59;3.15;;;0.60;;
42104;SDS011;61464;51.472;5.712;2022-08-01T10:10:30;1.63;;;0.50;;
42104;SDS011;61464;51.472;5.712;2022-08-01T10:12:57;0.43;;;0.43;;
42104;SDS011;61464;51.472;5.712;2022-08-01T10:15:25;1.23;;;0.63;;
42104;SDS011;61464;51.472;5.712;2022-08-01T10:20:30;2.20;;;0.85;;
42104;SDS011;61464;51.472;5.712;2022-08-01T10:22:59;2.20;;;0.90;;
42104;SDS011;61464;51.472;5.712;2022-08-01T10:25:30;1.00;;;0.80;;
42104;SDS011;61464;51.472;5.712;2022-08-01T10:28:04;1.40;;;1.00;;
42104;SDS011;61464;51.472;5.712;2022-08-01T10:30:41;2.72;;;1.77;;
42104;SDS011;61464;51.472;5.712;2022-08-01T10:33:08;4.10;;;2.50;;
42104;SDS011;61464;51.472;5.712;2022-08-01T10:35:35;3.47;;;1.95;;
42104;SDS011;61464;51.472;5.712;2022-08-01T10:38:03;3.10;;;1.77;;
42104;SDS011;61464;51.472;5.712;2022-08-01T10:40:30;2.95;;;1.30;;
42104;SDS011;61464;51.472;5.712;2022-08-01T10:42:56;3.50;;;1.95;;
42104;SDS011;61464;51.472;5.712;2022-08-01T10:45:23;3.60;;;1.50;;
42104;SDS011;61464;51.472;5.712;2022-08-01T10:50:46;1.58;;;1.10;;
42104;SDS011;61464;51.472;5.712;2022-08-01T10:53:17;1.20;;;0.90;;
42104;SDS011;61464;51.472;5.712;2022-08-01T10:58:13;1.70;;;1.10;;
42104;SDS011;61464;51.472;5.712;2022-08-01T11:03:57;2.67;;;1.42;;
42104;SDS011;61464;51.472;5.712;2022-08-01T11:09:01;1.60;;;1.10;;
42104;SDS011;61464;51.472;5.712;2022-08-01T11:11:56;1.25;;;0.80;;
42104;SDS011;61464;51.472;5.712;2022-08-01T11:17:30;2.20;;;0.77;;
42104;SDS011;61464;51.472;5.712;2022-08-01T11:20:08;1.00;;;0.80;;
42104;SDS011;61464;51.472;5.712;2022-08-01T11:25:26;2.63;;;1.40;;
42104;SDS011;61464;51.472;5.712;2022-08-01T11:30:51;1.50;;;0.88;;
42104;SDS011;61464;51.472;5.712;2022-08-01T11:38:42;1.95;;;0.70;;
42104;SDS011;61464;51.472;5.712;2022-08-01T11:41:28;0.60;;;0.45;;
42104;SDS011;61464;51.472;5.712;2022-08-01T11:44:02;1.77;;;0.82;;
42104;SDS011;61464;51.472;5.712;2022-08-01T11:52:15;1999.90;;;999.90;;
42104;SDS011;61464;51.472;5.712;2022-08-01T11:54:54;1999.90;;;999.90;;
42104;SDS011;61464;51.472;5.712;2022-08-01T11:57:29;1999.90;;;999.90;;
42104;SDS011;61464;51.472;5.712;2022-08-01T12:00:15;1999.90;;;999.90;;
42104;SDS011;61464;51.472;5.712;2022-08-01T12:02:43;1999.90;;;999.90;;
42104;SDS011;61464;51.472;5.712;2022-08-01T12:05:12;1999.90;;;999.90;;
42104;SDS011;61464;51.472;5.712;2022-08-01T12:07:41;1999.90;;;999.90;;
42104;SDS011;61464;51.472;5.712;2022-08-01T12:10:10;1999.90;;;999.90;;
42104;SDS011;61464;51.472;5.712;2022-08-01T12:12:45;1999.90;;;999.90;;
42104;SDS011;61464;51.472;5.712;2022-08-01T12:15:21;1999.90;;;999.90;;
42104;SDS011;61464;51.472;5.712;2022-08-01T12:17:59;1999.90;;;999.90;;
42104;SDS011;61464;51.472;5.712;2022-08-01T12:20:38;1999.90;;;999.90;;
42104;SDS011;61464;51.472;5.712;2022-08-01T12:23:07;1999.90;;;999.90;;
42104;SDS011;61464;51.472;5.712;2022-08-01T12:25:36;1999.90;;;999.90;;
42104;SDS011;61464;51.472;5.712;2022-08-01T12:28:08;1999.90;;;999.90;;
42104;SDS011;61464;51.472;5.712;2022-08-01T12:30:38;1999.90;;;999.90;;
42104;SDS011;61464;51.472;5.712;2022-08-01T12:33:06;1999.90;;;999.90;;
42104;SDS011;61464;51.472;5.712;2022-08-01T12:35:35;1999.90;;;999.90;;
42104;SDS011;61464;51.472;5.712;2022-08-01T12:38:07;1999.90;;;999.90;;
42104;SDS011;61464;51.472;5.712;2022-08-01T12:40:45;1999.90;;;999.90;;
42104;SDS011;61464;51.472;5.712;2022-08-01T12:43:17;1999.90;;;999.90;;
42104;SDS011;61464;51.472;5.712;2022-08-01T12:45:46;1999.90;;;999.90;;
42104;SDS011;61464;51.472;5.712;2022-08-01T12:48:16;1999.90;;;999.90;;
42104;SDS011;61464;51.472;5.712;2022-08-01T12:50:44;1999.90;;;999.90;;
42104;SDS011;61464;51.472;5.712;2022-08-01T12:53:12;1999.90;;;999.90;;
42104;SDS011;61464;51.472;5.712;2022-08-01T12:55:48;1999.90;;;999.90;;
42104;SDS011;61464;51.472;5.712;2022-08-01T12:58:17;1999.90;;;999.90;;
42104;SDS011;61464;51.472;5.712;2022-08-01T13:00:45;1999.90;;;999.90;;
42104;SDS011;61464;51.472;5.712;2022-08-01T13:03:14;1513.63;;;762.28;;
42104;SDS011;61464;51.472;5.712;2022-08-01T13:05:45;1999.90;;;999.90;;
42104;SDS011;61464;51.472;5.712;2022-08-01T13:08:24;1999.90;;;999.90;;
42104;SDS011;61464;51.472;5.712;2022-08-01T13:11:03;1999.90;;;999.90;;
42104;SDS011;61464;51.472;5.712;2022-08-01T13:13:50;1999.90;;;999.90;;
42104;SDS011;61464;51.472;5.712;2022-08-01T13:16:20;1999.90;;;999.90;;
42104;SDS011;61464;51.472;5.712;2022-08-01T13:18:49;1999.90;;;999.90;;
42104;SDS011;61464;51.472;5.712;2022-08-01T13:21:20;1999.90;;;999.90;;
42104;SDS011;61464;51.472;5.712;2022-08-01T13:24:00;1999.90;;;999.90;;
42104;SDS011;61464;51.472;5.712;2022-08-01T13:29:13;1999.90;;;999.90;;
42104;SDS011;61464;51.472;5.712;2022-08-01T13:31:44;1999.90;;;999.90;;
42104;SDS011;61464;51.472;5.712;2022-08-01T13:34:10;1999.90;;;999.90;;
42104;SDS011;61464;51.472;5.712;2022-08-01T13:36:36;1999.90;;;999.90;;
42104;SDS011;61464;51.472;5.712;2022-08-01T13:39:03;1999.90;;;999.90;;
42104;SDS011;61464;51.472;5.712;2022-08-01T13:41:48;1999.90;;;999.90;;
42104;SDS011;61464;51.472;5.712;2022-08-01T13:44:14;1999.90;;;999.90;;
42104;SDS011;61464;51.472;5.712;2022-08-01T13:46:41;1999.90;;;999.90;;
42104;SDS011;61464;51.472;5.712;2022-08-01T13:49:08;1999.90;;;999.90;;
42104;SDS011;61464;51.472;5.712;2022-08-01T13:51:36;1999.90;;;999.90;;
42104;SDS011;61464;51.472;5.712;2022-08-01T13:54:04;1999.90;;;999.90;;
42104;SDS011;61464;51.472;5.712;2022-08-01T13:56:30;1999.90;;;999.90;;
42104;SDS011;61464;51.472;5.712;2022-08-01T13:58:57;1999.90;;;999.90;;
42104;SDS011;61464;51.472;5.712;2022-08-01T14:01:23;1999.90;;;999.90;;
42104;SDS011;61464;51.472;5.712;2022-08-01T14:03:50;1999.90;;;999.90;;
42104;SDS011;61464;51.472;5.712;2022-08-01T14:06:17;1999.90;;;999.90;;
42104;SDS011;61464;51.472;5.712;2022-08-01T14:08:47;1999.90;;;999.90;;
42104;SDS011;61464;51.472;5.712;2022-08-01T14:11:13;1999.90;;;999.90;;
42104;SDS011;61464;51.472;5.712;2022-08-01T14:13:39;1999.90;;;999.90;;
42104;SDS011;61464;51.472;5.712;2022-08-01T14:16:05;1999.90;;;999.90;;
42104;SDS011;61464;51.472;5.712;2022-08-01T14:18:32;1999.90;;;999.90;;
42104;SDS011;61464;51.472;5.712;2022-08-01T14:20:58;1999.90;;;999.90;;
42104;SDS011;61464;51.472;5.712;2022-08-01T14:23:24;1999.90;;;999.90;;
42104;SDS011;61464;51.472;5.712;2022-08-01T14:25:51;1999.90;;;999.90;;
42104;SDS011;61464;51.472;5.712;2022-08-01T14:28:17;1999.90;;;999.90;;
42104;SDS011;61464;51.472;5.712;2022-08-01T14:30:43;1999.90;;;999.90;;
42104;SDS011;61464;51.472;5.712;2022-08-01T14:33:09;1999.90;;;999.90;;
42104;SDS011;61464;51.472;5.712;2022-08-01T14:35:36;1999.90;;;999.90;;
42104;SDS011;61464;51.472;5.712;2022-08-01T14:38:02;1999.90;;;999.90;;
42104;SDS011;61464;51.472;5.712;2022-08-01T14:40:28;1999.90;;;999.90;;
42104;SDS011;61464;51.472;5.712;2022-08-01T14:42:54;1999.90;;;999.90;;
42104;SDS011;61464;51.472;5.712;2022-08-01T14:45:20;1999.90;;;999.90;;
42104;SDS011;61464;51.472;5.712;2022-08-01T14:47:46;1999.90;;;999.90;;
42104;SDS011;61464;51.472;5.712;2022-08-01T14:50:12;1999.90;;;999.90;;
42104;SDS011;61464;51.472;5.712;2022-08-01T14:52:40;1999.90;;;999.90;;
42104;SDS011;61464;51.472;5.712;2022-08-01T14:55:08;1999.90;;;999.90;;
42104;SDS011;61464;51.472;5.712;2022-08-01T14:57:36;1999.90;;;999.90;;
42104;SDS011;61464;51.472;5.712;2022-08-01T15:00:05;1999.90;;;999.90;;
42104;SDS011;61464;51.472;5.712;2022-08-01T15:02:40;1999.90;;;999.90;;
42104;SDS011;61464;51.472;5.712;2022-08-01T15:05:07;1999.90;;;999.90;;
42104;SDS011;61464;51.472;5.712;2022-08-01T15:07:34;1999.90;;;999.90;;
42104;SDS011;61464;51.472;5.712;2022-08-01T15:10:02;1999.90;;;999.90;;
42104;SDS011;61464;51.472;5.712;2022-08-01T15:12:31;1999.90;;;999.90;;
42104;SDS011;61464;51.472;5.712;2022-08-01T15:14:59;1999.90;;;999.90;;
42104;SDS011;61464;51.472;5.712;2022-08-01T15:17:26;1999.90;;;999.90;;
42104;SDS011;61464;51.472;5.712;2022-08-01T15:19:54;1999.90;;;999.90;;
42104;SDS011;61464;51.472;5.712;2022-08-01T15:22:24;1999.90;;;999.90;;
42104;SDS011;61464;51.472;5.712;2022-08-01T15:24:51;1999.90;;;999.90;;
42104;SDS011;61464;51.472;5.712;2022-08-01T15:27:19;1999.90;;;999.90;;